Terminal Aerodrome Forecast
Issued by NWS

Home | Current Version | Previous Version | Text Only | Print | Product List | Glossary On
Versions: 1 2 3 4 5 6 7 8 9 10 11 12 13 14 15 16 17 18 19
000
FTUS44 KTSA 031100
TAFBVO
TAF
KBVO 031120Z 0312/0412 20011G18KT P6SM OVC006
     FM031600 21013KT P6SM OVC015
     FM040000 35008G16KT P6SM SCT015 OVC050 PROB30 0400/0406 4SM -RA
      BR OVC015
     FM040600 01011G18KT 3SM -FZRAPL OVC010
     FM040900 01012G21KT 3SM -SNPL OVC007=

USA.gov is the U.S. government's official web portal to all federal, state and local government web resources and services.